sensor_id;sensor_type;location;lat;lon;timestamp;P1;durP1;ratioP1;P2;durP2;ratioP2
55756;SDS011;41676;44.610;44.078;2023-11-21T00:04:51;5.28;;;3.97;;
55756;SDS011;41676;44.610;44.078;2023-11-21T00:09:52;6.13;;;4.05;;
55756;SDS011;41676;44.610;44.078;2023-11-21T00:14:56;9.60;;;4.67;;
55756;SDS011;41676;44.610;44.078;2023-11-21T00:19:56;6.43;;;4.63;;
55756;SDS011;41676;44.610;44.078;2023-11-21T00:24:57;11.30;;;5.15;;
55756;SDS011;41676;44.610;44.078;2023-11-21T00:29:58;7.55;;;5.28;;
55756;SDS011;41676;44.610;44.078;2023-11-21T00:34:59;6.50;;;4.90;;
55756;SDS011;41676;44.610;44.078;2023-11-21T00:40:00;8.00;;;4.80;;
55756;SDS011;41676;44.610;44.078;2023-11-21T00:45:05;7.13;;;4.82;;
55756;SDS011;41676;44.610;44.078;2023-11-21T00:50:07;11.32;;;4.88;;
55756;SDS011;41676;44.610;44.078;2023-11-21T00:55:08;8.82;;;4.57;;
55756;SDS011;41676;44.610;44.078;2023-11-21T01:00:10;6.82;;;5.07;;
55756;SDS011;41676;44.610;44.078;2023-11-21T01:05:17;7.97;;;5.35;;
55756;SDS011;41676;44.610;44.078;2023-11-21T01:10:18;7.82;;;5.50;;
55756;SDS011;41676;44.610;44.078;2023-11-21T01:15:19;8.40;;;4.93;;
55756;SDS011;41676;44.610;44.078;2023-11-21T01:20:19;7.43;;;5.18;;
55756;SDS011;41676;44.610;44.078;2023-11-21T01:25:20;9.13;;;5.18;;
55756;SDS011;41676;44.610;44.078;2023-11-21T01:30:21;6.82;;;5.05;;
55756;SDS011;41676;44.610;44.078;2023-11-21T01:35:22;8.73;;;5.32;;
55756;SDS011;41676;44.610;44.078;2023-11-21T01:40:22;8.98;;;5.85;;
55756;SDS011;41676;44.610;44.078;2023-11-21T01:45:24;7.13;;;4.80;;
55756;SDS011;41676;44.610;44.078;2023-11-21T01:50:25;7.85;;;5.03;;
55756;SDS011;41676;44.610;44.078;2023-11-21T01:55:26;10.52;;;5.22;;
55756;SDS011;41676;44.610;44.078;2023-11-21T02:00:27;7.57;;;5.10;;
55756;SDS011;41676;44.610;44.078;2023-11-21T02:05:29;7.47;;;5.45;;
55756;SDS011;41676;44.610;44.078;2023-11-21T02:10:32;11.35;;;5.78;;
55756;SDS011;41676;44.610;44.078;2023-11-21T02:15:33;11.20;;;5.45;;
55756;SDS011;41676;44.610;44.078;2023-11-21T02:20:34;9.65;;;5.45;;
55756;SDS011;41676;44.610;44.078;2023-11-21T02:25:37;5.72;;;4.80;;
55756;SDS011;41676;44.610;44.078;2023-11-21T02:30:38;8.45;;;5.65;;
55756;SDS011;41676;44.610;44.078;2023-11-21T02:35:39;7.13;;;5.50;;
55756;SDS011;41676;44.610;44.078;2023-11-21T02:40:40;8.50;;;5.70;;
55756;SDS011;41676;44.610;44.078;2023-11-21T02:45:40;6.85;;;4.57;;
55756;SDS011;41676;44.610;44.078;2023-11-21T02:50:42;7.70;;;4.40;;
55756;SDS011;41676;44.610;44.078;2023-11-21T02:55:43;6.00;;;4.00;;
55756;SDS011;41676;44.610;44.078;2023-11-21T03:00:44;6.47;;;4.30;;
55756;SDS011;41676;44.610;44.078;2023-11-21T03:05:45;5.75;;;4.53;;
55756;SDS011;41676;44.610;44.078;2023-11-21T03:10:45;8.18;;;4.57;;
55756;SDS011;41676;44.610;44.078;2023-11-21T03:15:46;7.00;;;4.57;;
55756;SDS011;41676;44.610;44.078;2023-11-21T03:20:47;5.78;;;4.30;;
55756;SDS011;41676;44.610;44.078;2023-11-21T03:25:48;7.28;;;4.50;;
55756;SDS011;41676;44.610;44.078;2023-11-21T03:30:49;6.90;;;4.57;;
55756;SDS011;41676;44.610;44.078;2023-11-21T03:35:50;7.05;;;4.60;;
55756;SDS011;41676;44.610;44.078;2023-11-21T03:40:50;6.43;;;4.60;;
55756;SDS011;41676;44.610;44.078;2023-11-21T03:45:51;8.48;;;4.60;;
55756;SDS011;41676;44.610;44.078;2023-11-21T03:50:52;6.90;;;4.88;;
55756;SDS011;41676;44.610;44.078;2023-11-21T03:55:53;6.15;;;4.38;;
55756;SDS011;41676;44.610;44.078;2023-11-21T04:00:53;5.88;;;4.30;;
55756;SDS011;41676;44.610;44.078;2023-11-21T04:05:54;5.13;;;3.63;;
55756;SDS011;41676;44.610;44.078;2023-11-21T04:10:55;5.95;;;4.47;;
55756;SDS011;41676;44.610;44.078;2023-11-21T04:15:56;5.28;;;3.80;;
55756;SDS011;41676;44.610;44.078;2023-11-21T04:20:57;5.45;;;3.40;;
55756;SDS011;41676;44.610;44.078;2023-11-21T04:25:57;6.40;;;3.72;;
55756;SDS011;41676;44.610;44.078;2023-11-21T04:30:59;5.47;;;4.05;;
55756;SDS011;41676;44.610;44.078;2023-11-21T04:35:59;4.70;;;3.42;;
55756;SDS011;41676;44.610;44.078;2023-11-21T04:41:00;5.60;;;3.80;;
55756;SDS011;41676;44.610;44.078;2023-11-21T04:46:01;5.25;;;3.95;;
55756;SDS011;41676;44.610;44.078;2023-11-21T04:51:02;5.97;;;4.03;;
55756;SDS011;41676;44.610;44.078;2023-11-21T04:56:04;6.40;;;4.20;;
55756;SDS011;41676;44.610;44.078;2023-11-21T05:01:06;5.10;;;4.05;;
55756;SDS011;41676;44.610;44.078;2023-11-21T05:06:10;5.57;;;4.38;;
55756;SDS011;41676;44.610;44.078;2023-11-21T05:11:11;10.37;;;4.30;;
55756;SDS011;41676;44.610;44.078;2023-11-21T05:16:12;5.68;;;3.53;;
55756;SDS011;41676;44.610;44.078;2023-11-21T05:21:14;5.43;;;3.92;;
55756;SDS011;41676;44.610;44.078;2023-11-21T05:26:15;5.03;;;3.47;;
55756;SDS011;41676;44.610;44.078;2023-11-21T05:31:16;5.93;;;3.65;;
55756;SDS011;41676;44.610;44.078;2023-11-21T05:36:16;4.63;;;3.38;;
55756;SDS011;41676;44.610;44.078;2023-11-21T05:41:17;5.93;;;3.67;;
55756;SDS011;41676;44.610;44.078;2023-11-21T05:46:18;4.72;;;3.28;;
55756;SDS011;41676;44.610;44.078;2023-11-21T05:51:19;4.97;;;3.30;;
55756;SDS011;41676;44.610;44.078;2023-11-21T05:56:19;4.72;;;3.08;;
55756;SDS011;41676;44.610;44.078;2023-11-21T06:01:20;4.32;;;2.67;;
55756;SDS011;41676;44.610;44.078;2023-11-21T06:06:21;3.50;;;2.55;;
55756;SDS011;41676;44.610;44.078;2023-11-21T06:11:25;3.88;;;2.65;;
55756;SDS011;41676;44.610;44.078;2023-11-21T06:16:26;3.83;;;2.70;;
55756;SDS011;41676;44.610;44.078;2023-11-21T06:21:28;6.03;;;2.80;;
55756;SDS011;41676;44.610;44.078;2023-11-21T06:26:28;7.82;;;2.92;;
55756;SDS011;41676;44.610;44.078;2023-11-21T06:31:29;4.10;;;2.42;;
55756;SDS011;41676;44.610;44.078;2023-11-21T06:36:30;3.90;;;2.80;;
55756;SDS011;41676;44.610;44.078;2023-11-21T06:41:31;4.85;;;2.97;;
55756;SDS011;41676;44.610;44.078;2023-11-21T06:46:32;4.38;;;2.75;;
55756;SDS011;41676;44.610;44.078;2023-11-21T06:51:33;5.07;;;2.45;;
55756;SDS011;41676;44.610;44.078;2023-11-21T06:56:34;3.70;;;2.22;;
55756;SDS011;41676;44.610;44.078;2023-11-21T07:01:36;3.63;;;2.20;;
55756;SDS011;41676;44.610;44.078;2023-11-21T07:06:39;3.00;;;1.90;;
55756;SDS011;41676;44.610;44.078;2023-11-21T07:11:40;2.85;;;1.80;;
55756;SDS011;41676;44.610;44.078;2023-11-21T07:16:40;3.05;;;1.95;;
55756;SDS011;41676;44.610;44.078;2023-11-21T07:21:41;2.17;;;1.27;;
55756;SDS011;41676;44.610;44.078;2023-11-21T07:26:42;1.90;;;1.10;;
55756;SDS011;41676;44.610;44.078;2023-11-21T07:31:43;2.40;;;1.02;;
55756;SDS011;41676;44.610;44.078;2023-11-21T07:36:43;3.58;;;1.00;;
55756;SDS011;41676;44.610;44.078;2023-11-21T07:41:44;6.15;;;0.98;;
55756;SDS011;41676;44.610;44.078;2023-11-21T07:46:48;1.13;;;0.73;;
55756;SDS011;41676;44.610;44.078;2023-11-21T07:51:50;1.38;;;0.57;;
55756;SDS011;41676;44.610;44.078;2023-11-21T07:56:51;4.22;;;0.70;;
55756;SDS011;41676;44.610;44.078;2023-11-21T08:01:52;1.42;;;0.50;;
55756;SDS011;41676;44.610;44.078;2023-11-21T08:06:53;1.23;;;0.50;;
55756;SDS011;41676;44.610;44.078;2023-11-21T08:11:53;0.80;;;0.40;;
55756;SDS011;41676;44.610;44.078;2023-11-21T08:16:54;2.85;;;0.70;;
55756;SDS011;41676;44.610;44.078;2023-11-21T08:21:57;1.95;;;0.30;;
55756;SDS011;41676;44.610;44.078;2023-11-21T08:26:59;1.08;;;0.50;;
55756;SDS011;41676;44.610;44.078;2023-11-21T08:32:00;3.33;;;0.70;;
55756;SDS011;41676;44.610;44.078;2023-11-21T08:37:00;1.60;;;0.80;;
55756;SDS011;41676;44.610;44.078;2023-11-21T08:42:01;3.85;;;1.00;;
55756;SDS011;41676;44.610;44.078;2023-11-21T08:47:02;3.05;;;1.45;;
55756;SDS011;41676;44.610;44.078;2023-11-21T08:52:05;1.88;;;1.15;;
55756;SDS011;41676;44.610;44.078;2023-11-21T08:57:06;3.67;;;1.52;;
55756;SDS011;41676;44.610;44.078;2023-11-21T09:02:07;2.95;;;1.00;;
55756;SDS011;41676;44.610;44.078;2023-11-21T09:07:08;2.05;;;1.33;;
55756;SDS011;41676;44.610;44.078;2023-11-21T09:12:10;2.47;;;1.42;;
55756;SDS011;41676;44.610;44.078;2023-11-21T09:17:12;4.40;;;1.60;;
55756;SDS011;41676;44.610;44.078;2023-11-21T09:22:14;2.10;;;1.40;;
55756;SDS011;41676;44.610;44.078;2023-11-21T09:27:15;4.05;;;1.25;;
55756;SDS011;41676;44.610;44.078;2023-11-21T09:32:17;2.35;;;0.93;;
55756;SDS011;41676;44.610;44.078;2023-11-21T09:37:18;2.05;;;1.13;;
55756;SDS011;41676;44.610;44.078;2023-11-21T09:42:22;3.67;;;1.10;;
55756;SDS011;41676;44.610;44.078;2023-11-21T09:47:28;4.20;;;1.40;;
55756;SDS011;41676;44.610;44.078;2023-11-21T09:52:29;2.30;;;1.00;;
55756;SDS011;41676;44.610;44.078;2023-11-21T09:57:32;2.05;;;0.95;;
55756;SDS011;41676;44.610;44.078;2023-11-21T10:02:33;5.03;;;1.23;;
55756;SDS011;41676;44.610;44.078;2023-11-21T10:07:36;2.35;;;1.20;;
55756;SDS011;41676;44.610;44.078;2023-11-21T10:12:39;1.88;;;0.95;;
55756;SDS011;41676;44.610;44.078;2023-11-21T10:17:42;2.50;;;0.95;;
55756;SDS011;41676;44.610;44.078;2023-11-21T10:22:45;4.18;;;1.02;;
55756;SDS011;41676;44.610;44.078;2023-11-21T10:27:46;1.75;;;1.00;;
55756;SDS011;41676;44.610;44.078;2023-11-21T10:38:02;2.65;;;1.20;;
55756;SDS011;41676;44.610;44.078;2023-11-21T10:43:06;2.22;;;0.98;;
55756;SDS011;41676;44.610;44.078;2023-11-21T10:48:12;1.73;;;0.90;;
55756;SDS011;41676;44.610;44.078;2023-11-21T10:53:17;2.78;;;0.82;;
55756;SDS011;41676;44.610;44.078;2023-11-21T10:58:19;1.95;;;0.70;;
55756;SDS011;41676;44.610;44.078;2023-11-21T11:03:20;3.70;;;1.42;;
55756;SDS011;41676;44.610;44.078;2023-11-21T11:08:23;2.75;;;1.50;;
55756;SDS011;41676;44.610;44.078;2023-11-21T11:13:26;2.85;;;1.75;;
55756;SDS011;41676;44.610;44.078;2023-11-21T11:18:30;2.13;;;1.20;;
55756;SDS011;41676;44.610;44.078;2023-11-21T11:23:46;2.53;;;1.30;;
55756;SDS011;41676;44.610;44.078;2023-11-21T11:35:17;3.17;;;1.42;;
55756;SDS011;41676;44.610;44.078;2023-11-21T11:40:07;3.22;;;1.95;;
55756;SDS011;41676;44.610;44.078;2023-11-21T11:45:17;2.88;;;1.90;;
55756;SDS011;41676;44.610;44.078;2023-11-21T11:50:21;3.08;;;1.88;;
55756;SDS011;41676;44.610;44.078;2023-11-21T11:55:22;3.60;;;2.30;;
55756;SDS011;41676;44.610;44.078;2023-11-21T12:05:34;5.65;;;2.20;;
55756;SDS011;41676;44.610;44.078;2023-11-21T12:10:39;3.65;;;2.30;;
55756;SDS011;41676;44.610;44.078;2023-11-21T12:15:40;4.55;;;3.00;;
55756;SDS011;41676;44.610;44.078;2023-11-21T12:20:41;5.20;;;2.85;;
55756;SDS011;41676;44.610;44.078;2023-11-21T12:25:43;4.97;;;3.45;;
55756;SDS011;41676;44.610;44.078;2023-11-21T12:30:44;5.05;;;2.97;;
55756;SDS011;41676;44.610;44.078;2023-11-21T12:35:45;4.60;;;2.65;;
55756;SDS011;41676;44.610;44.078;2023-11-21T12:40:46;4.55;;;3.05;;
55756;SDS011;41676;44.610;44.078;2023-11-21T12:45:47;6.20;;;2.90;;
55756;SDS011;41676;44.610;44.078;2023-11-21T12:50:48;4.45;;;2.75;;
55756;SDS011;41676;44.610;44.078;2023-11-21T12:55:55;4.40;;;2.88;;
55756;SDS011;41676;44.610;44.078;2023-11-21T13:00:58;4.85;;;3.33;;
55756;SDS011;41676;44.610;44.078;2023-11-21T13:05:59;4.85;;;3.10;;
55756;SDS011;41676;44.610;44.078;2023-11-21T13:11:01;6.70;;;3.60;;
55756;SDS011;41676;44.610;44.078;2023-11-21T13:16:03;4.90;;;3.55;;
55756;SDS011;41676;44.610;44.078;2023-11-21T13:21:08;6.07;;;3.88;;
55756;SDS011;41676;44.610;44.078;2023-11-21T13:26:17;6.50;;;4.30;;
55756;SDS011;41676;44.610;44.078;2023-11-21T13:31:20;4.77;;;3.10;;
55756;SDS011;41676;44.610;44.078;2023-11-21T13:36:23;7.07;;;3.13;;
55756;SDS011;41676;44.610;44.078;2023-11-21T13:41:25;5.50;;;3.20;;
55756;SDS011;41676;44.610;44.078;2023-11-21T13:46:30;8.27;;;3.70;;
55756;SDS011;41676;44.610;44.078;2023-11-21T13:51:37;6.75;;;3.65;;
55756;SDS011;41676;44.610;44.078;2023-11-21T13:56:45;5.40;;;3.67;;
55756;SDS011;41676;44.610;44.078;2023-11-21T14:01:47;5.93;;;3.80;;
55756;SDS011;41676;44.610;44.078;2023-11-21T14:06:53;5.40;;;3.78;;
55756;SDS011;41676;44.610;44.078;2023-11-21T14:11:55;6.53;;;3.83;;
55756;SDS011;41676;44.610;44.078;2023-11-21T14:16:57;8.43;;;4.50;;
55756;SDS011;41676;44.610;44.078;2023-11-21T14:21:59;6.45;;;4.30;;
55756;SDS011;41676;44.610;44.078;2023-11-21T14:27:01;6.70;;;4.18;;
55756;SDS011;41676;44.610;44.078;2023-11-21T14:32:02;5.63;;;4.15;;
55756;SDS011;41676;44.610;44.078;2023-11-21T14:37:03;9.70;;;6.22;;
55756;SDS011;41676;44.610;44.078;2023-11-21T14:42:04;9.60;;;4.22;;
55756;SDS011;41676;44.610;44.078;2023-11-21T14:47:07;9.07;;;4.70;;
55756;SDS011;41676;44.610;44.078;2023-11-21T14:52:15;10.95;;;4.88;;
55756;SDS011;41676;44.610;44.078;2023-11-21T14:57:34;7.88;;;4.47;;
55756;SDS011;41676;44.610;44.078;2023-11-21T15:02:36;7.47;;;3.97;;
55756;SDS011;41676;44.610;44.078;2023-11-21T15:07:51;6.72;;;4.05;;
55756;SDS011;41676;44.610;44.078;2023-11-21T15:17:58;5.38;;;3.80;;
55756;SDS011;41676;44.610;44.078;2023-11-21T15:22:58;6.05;;;3.90;;
55756;SDS011;41676;44.610;44.078;2023-11-21T15:28:00;6.75;;;3.85;;
55756;SDS011;41676;44.610;44.078;2023-11-21T15:33:02;6.68;;;4.50;;
55756;SDS011;41676;44.610;44.078;2023-11-21T15:38:04;5.30;;;3.50;;
55756;SDS011;41676;44.610;44.078;2023-11-21T15:43:04;5.00;;;3.63;;
55756;SDS011;41676;44.610;44.078;2023-11-21T15:48:07;4.90;;;3.30;;
55756;SDS011;41676;44.610;44.078;2023-11-21T15:53:10;5.18;;;3.00;;
55756;SDS011;41676;44.610;44.078;2023-11-21T15:58:10;4.50;;;2.88;;
55756;SDS011;41676;44.610;44.078;2023-11-21T16:03:11;4.50;;;2.85;;
55756;SDS011;41676;44.610;44.078;2023-11-21T16:08:13;5.07;;;3.40;;
55756;SDS011;41676;44.610;44.078;2023-11-21T16:13:14;5.25;;;3.20;;
55756;SDS011;41676;44.610;44.078;2023-11-21T16:18:15;5.15;;;3.20;;
55756;SDS011;41676;44.610;44.078;2023-11-21T16:23:16;4.90;;;3.30;;
55756;SDS011;41676;44.610;44.078;2023-11-21T16:28:17;5.40;;;3.42;;
55756;SDS011;41676;44.610;44.078;2023-11-21T16:33:18;4.25;;;2.95;;
55756;SDS011;41676;44.610;44.078;2023-11-21T16:38:19;6.82;;;4.20;;
55756;SDS011;41676;44.610;44.078;2023-11-21T16:43:20;11.70;;;4.05;;
55756;SDS011;41676;44.610;44.078;2023-11-21T16:48:21;5.10;;;3.33;;
55756;SDS011;41676;44.610;44.078;2023-11-21T16:53:22;5.22;;;3.45;;
55756;SDS011;41676;44.610;44.078;2023-11-21T16:58:23;5.30;;;3.78;;
55756;SDS011;41676;44.610;44.078;2023-11-21T17:03:23;6.78;;;4.13;;
55756;SDS011;41676;44.610;44.078;2023-11-21T17:08:26;5.47;;;3.78;;
55756;SDS011;41676;44.610;44.078;2023-11-21T17:13:28;5.43;;;3.65;;
55756;SDS011;41676;44.610;44.078;2023-11-21T17:18:29;5.07;;;3.33;;
55756;SDS011;41676;44.610;44.078;2023-11-21T17:23:30;5.65;;;3.53;;
55756;SDS011;41676;44.610;44.078;2023-11-21T17:28:31;5.65;;;3.67;;
55756;SDS011;41676;44.610;44.078;2023-11-21T17:33:32;5.65;;;3.88;;
55756;SDS011;41676;44.610;44.078;2023-11-21T17:38:33;6.22;;;4.40;;
55756;SDS011;41676;44.610;44.078;2023-11-21T17:43:34;5.50;;;3.70;;
55756;SDS011;41676;44.610;44.078;2023-11-21T17:48:39;5.90;;;4.28;;
55756;SDS011;41676;44.610;44.078;2023-11-21T17:53:41;6.93;;;4.68;;
55756;SDS011;41676;44.610;44.078;2023-11-21T17:58:43;7.03;;;4.50;;
55756;SDS011;41676;44.610;44.078;2023-11-21T18:03:45;6.80;;;4.35;;
55756;SDS011;41676;44.610;44.078;2023-11-21T18:08:46;8.55;;;4.50;;
55756;SDS011;41676;44.610;44.078;2023-11-21T18:13:47;7.60;;;4.90;;
55756;SDS011;41676;44.610;44.078;2023-11-21T18:18:48;7.13;;;3.90;;
55756;SDS011;41676;44.610;44.078;2023-11-21T18:23:50;7.90;;;4.40;;
55756;SDS011;41676;44.610;44.078;2023-11-21T18:28:51;6.95;;;4.55;;
55756;SDS011;41676;44.610;44.078;2023-11-21T18:33:52;8.13;;;5.35;;
55756;SDS011;41676;44.610;44.078;2023-11-21T18:38:53;7.57;;;5.32;;
55756;SDS011;41676;44.610;44.078;2023-11-21T18:43:54;7.97;;;5.72;;
55756;SDS011;41676;44.610;44.078;2023-11-21T18:48:55;7.63;;;5.18;;
55756;SDS011;41676;44.610;44.078;2023-11-21T18:53:56;8.25;;;5.43;;
55756;SDS011;41676;44.610;44.078;2023-11-21T18:58:57;8.15;;;5.65;;
55756;SDS011;41676;44.610;44.078;2023-11-21T19:03:58;10.70;;;6.50;;
55756;SDS011;41676;44.610;44.078;2023-11-21T19:08:59;9.60;;;6.65;;
55756;SDS011;41676;44.610;44.078;2023-11-21T19:14:00;11.77;;;7.10;;
55756;SDS011;41676;44.610;44.078;2023-11-21T19:19:01;9.43;;;6.68;;
55756;SDS011;41676;44.610;44.078;2023-11-21T19:24:01;9.13;;;6.18;;
55756;SDS011;41676;44.610;44.078;2023-11-21T19:29:02;9.85;;;6.75;;
55756;SDS011;41676;44.610;44.078;2023-11-21T19:34:05;10.13;;;7.25;;
55756;SDS011;41676;44.610;44.078;2023-11-21T19:39:06;11.05;;;6.90;;
55756;SDS011;41676;44.610;44.078;2023-11-21T19:44:07;10.52;;;7.10;;
55756;SDS011;41676;44.610;44.078;2023-11-21T19:49:08;10.65;;;7.38;;
55756;SDS011;41676;44.610;44.078;2023-11-21T19:54:10;8.57;;;6.28;;
55756;SDS011;41676;44.610;44.078;2023-11-21T19:59:10;10.18;;;6.55;;
55756;SDS011;41676;44.610;44.078;2023-11-21T20:04:11;8.68;;;6.72;;
55756;SDS011;41676;44.610;44.078;2023-11-21T20:09:12;12.98;;;7.15;;
55756;SDS011;41676;44.610;44.078;2023-11-21T20:14:14;10.25;;;7.40;;
55756;SDS011;41676;44.610;44.078;2023-11-21T20:19:17;11.30;;;6.97;;
55756;SDS011;41676;44.610;44.078;2023-11-21T20:24:18;11.65;;;7.20;;
55756;SDS011;41676;44.610;44.078;2023-11-21T20:29:18;9.60;;;6.72;;
55756;SDS011;41676;44.610;44.078;2023-11-21T20:34:19;8.35;;;6.35;;
55756;SDS011;41676;44.610;44.078;2023-11-21T20:39:20;9.07;;;6.18;;
55756;SDS011;41676;44.610;44.078;2023-11-21T20:44:21;11.15;;;6.40;;
55756;SDS011;41676;44.610;44.078;2023-11-21T20:49:22;9.82;;;6.25;;
55756;SDS011;41676;44.610;44.078;2023-11-21T20:54:22;8.27;;;6.00;;
55756;SDS011;41676;44.610;44.078;2023-11-21T20:59:23;9.02;;;6.28;;
55756;SDS011;41676;44.610;44.078;2023-11-21T21:04:24;11.43;;;6.43;;
55756;SDS011;41676;44.610;44.078;2023-11-21T21:09:25;11.18;;;6.78;;
55756;SDS011;41676;44.610;44.078;2023-11-21T21:14:25;9.98;;;6.50;;
55756;SDS011;41676;44.610;44.078;2023-11-21T21:19:29;9.80;;;6.40;;
55756;SDS011;41676;44.610;44.078;2023-11-21T21:24:30;9.48;;;7.03;;
55756;SDS011;41676;44.610;44.078;2023-11-21T21:29:31;9.27;;;5.95;;
55756;SDS011;41676;44.610;44.078;2023-11-21T21:34:31;9.95;;;6.68;;
55756;SDS011;41676;44.610;44.078;2023-11-21T21:39:33;10.82;;;6.82;;
55756;SDS011;41676;44.610;44.078;2023-11-21T21:44:33;8.82;;;5.93;;
55756;SDS011;41676;44.610;44.078;2023-11-21T21:49:34;9.00;;;6.82;;
55756;SDS011;41676;44.610;44.078;2023-11-21T21:54:35;9.85;;;6.22;;
55756;SDS011;41676;44.610;44.078;2023-11-21T21:59:36;9.82;;;6.30;;
55756;SDS011;41676;44.610;44.078;2023-11-21T22:04:37;11.10;;;7.07;;
55756;SDS011;41676;44.610;44.078;2023-11-21T22:09:40;8.95;;;6.55;;
55756;SDS011;41676;44.610;44.078;2023-11-21T22:14:40;10.40;;;7.38;;
55756;SDS011;41676;44.610;44.078;2023-11-21T22:19:41;9.43;;;6.60;;
55756;SDS011;41676;44.610;44.078;2023-11-21T22:24:42;10.90;;;7.40;;
55756;SDS011;41676;44.610;44.078;2023-11-21T22:29:42;9.93;;;7.20;;
55756;SDS011;41676;44.610;44.078;2023-11-21T22:34:43;11.00;;;7.53;;
55756;SDS011;41676;44.610;44.078;2023-11-21T22:39:44;13.63;;;8.05;;
55756;SDS011;41676;44.610;44.078;2023-11-21T22:44:46;11.52;;;7.65;;
55756;SDS011;41676;44.610;44.078;2023-11-21T22:49:47;10.55;;;7.47;;
55756;SDS011;41676;44.610;44.078;2023-11-21T22:54:47;10.95;;;7.45;;
55756;SDS011;41676;44.610;44.078;2023-11-21T22:59:48;9.93;;;7.00;;
55756;SDS011;41676;44.610;44.078;2023-11-21T23:04:52;11.27;;;7.30;;
55756;SDS011;41676;44.610;44.078;2023-11-21T23:09:53;10.63;;;7.28;;
55756;SDS011;41676;44.610;44.078;2023-11-21T23:14:54;10.50;;;7.18;;
55756;SDS011;41676;44.610;44.078;2023-11-21T23:19:55;9.90;;;6.57;;
55756;SDS011;41676;44.610;44.078;2023-11-21T23:24:55;10.70;;;7.43;;
55756;SDS011;41676;44.610;44.078;2023-11-21T23:29:56;9.45;;;7.15;;
55756;SDS011;41676;44.610;44.078;2023-11-21T23:34:57;8.73;;;6.72;;
55756;SDS011;41676;44.610;44.078;2023-11-21T23:39:58;9.52;;;6.32;;
55756;SDS011;41676;44.610;44.078;2023-11-21T23:44:59;10.20;;;6.40;;
55756;SDS011;41676;44.610;44.078;2023-11-21T23:50:01;9.38;;;6.32;;
55756;SDS011;41676;44.610;44.078;2023-11-21T23:55:04;10.07;;;6.22;;
